createdAt,value
2018-12-23T00:02:15.554Z,3.50
2018-12-23T00:05:19.101Z,4.00
2018-12-23T00:08:22.574Z,4.03
2018-12-23T00:11:26.080Z,4.10
2018-12-23T00:14:29.599Z,4.33
2018-12-23T00:17:33.059Z,3.62
2018-12-23T00:20:36.684Z,4.23
2018-12-23T00:23:40.236Z,4.42
2018-12-23T00:26:43.774Z,4.47
2018-12-23T00:29:47.312Z,4.75
2018-12-23T00:32:50.875Z,5.30
2018-12-23T00:35:54.393Z,5.33
2018-12-23T00:38:57.981Z,5.07
2018-12-23T00:42:01.495Z,4.80
2018-12-23T00:45:05.690Z,5.40
2018-12-23T00:48:09.389Z,5.70
2018-12-23T00:51:12.861Z,5.37
2018-12-23T00:54:16.393Z,5.97
2018-12-23T00:57:19.924Z,5.70
2018-12-23T01:00:23.418Z,5.45
2018-12-23T01:03:26.981Z,6.00
2018-12-23T01:06:30.536Z,5.63
2018-12-23T01:09:36.201Z,5.80
2018-12-23T01:12:39.528Z,6.07
2018-12-23T01:15:43.030Z,5.20
2018-12-23T01:18:46.665Z,5.87
2018-12-23T01:21:50.146Z,6.10
2018-12-23T01:24:53.670Z,6.33
2018-12-23T01:27:57.583Z,5.97
2018-12-23T01:31:01.075Z,6.73
2018-12-23T01:34:05.403Z,7.80
2018-12-23T01:37:09.015Z,6.33
2018-12-23T01:40:12.496Z,6.30
2018-12-23T01:43:16.135Z,7.00
2018-12-23T01:46:19.720Z,6.97
2018-12-23T01:49:23.428Z,7.03
2018-12-23T01:52:26.959Z,7.63
2018-12-23T01:55:30.435Z,7.20
2018-12-23T01:58:34.043Z,7.70
2018-12-23T02:01:44.909Z,8.50
2018-12-23T02:04:48.426Z,8.10
2018-12-23T02:07:52.004Z,8.67
2018-12-23T02:10:55.679Z,9.73
2018-12-23T02:13:59.284Z,9.73
2018-12-23T02:17:02.779Z,10.72
2018-12-23T02:20:06.943Z,10.48
2018-12-23T02:23:10.452Z,11.38
2018-12-23T02:26:13.935Z,11.93
2018-12-23T02:29:17.419Z,11.87
2018-12-23T02:32:20.872Z,11.33
2018-12-23T02:35:24.464Z,12.05
2018-12-23T02:38:27.963Z,11.43
2018-12-23T02:41:32.121Z,10.55
2018-12-23T02:44:35.678Z,10.60
2018-12-23T02:47:39.252Z,11.70
2018-12-23T02:50:42.722Z,11.93
2018-12-23T02:53:46.467Z,11.33
2018-12-23T02:56:50.039Z,11.43
2018-12-23T02:59:53.585Z,10.72
2018-12-23T03:02:57.487Z,10.97
2018-12-23T03:06:05.769Z,11.07
2018-12-23T03:09:07.290Z,10.50
2018-12-23T03:12:10.808Z,10.90
2018-12-23T03:15:14.393Z,10.77
2018-12-23T03:18:17.984Z,9.83
2018-12-23T03:21:21.470Z,10.93
2018-12-23T03:24:25.008Z,10.30
2018-12-23T03:27:28.652Z,10.95
2018-12-23T03:30:32.118Z,10.90
2018-12-23T03:33:35.708Z,10.77
2018-12-23T03:36:39.353Z,11.30
2018-12-23T03:39:42.804Z,11.07
2018-12-23T03:42:46.262Z,11.30
2018-12-23T03:45:49.758Z,11.60
2018-12-23T03:48:53.239Z,11.23
2018-12-23T03:51:57.528Z,12.60
2018-12-23T03:55:01.065Z,11.83
2018-12-23T03:58:04.550Z,12.20
2018-12-23T04:01:08.669Z,13.00
2018-12-23T04:04:12.116Z,13.55
2018-12-23T04:07:15.670Z,12.75
2018-12-23T04:10:19.274Z,11.73
2018-12-23T04:13:22.855Z,11.97
2018-12-23T04:16:26.357Z,13.20
2018-12-23T04:19:29.853Z,11.80
2018-12-23T04:22:33.357Z,13.00
2018-12-23T04:25:36.797Z,13.60
2018-12-23T04:28:40.441Z,12.50
2018-12-23T04:31:43.966Z,14.53
2018-12-23T04:34:47.482Z,12.63
2018-12-23T04:37:51.058Z,13.00
2018-12-23T04:40:54.569Z,13.00
2018-12-23T04:43:58.062Z,13.33
2018-12-23T04:47:01.587Z,12.60
2018-12-23T04:50:05.873Z,12.60
2018-12-23T04:53:09.321Z,12.63
2018-12-23T04:56:12.994Z,11.95
2018-12-23T04:59:16.533Z,12.47
2018-12-23T05:02:20.001Z,12.50
2018-12-23T05:05:23.599Z,12.43
2018-12-23T05:08:27.138Z,11.47
2018-12-23T05:11:30.666Z,11.83
2018-12-23T05:14:34.216Z,11.53
2018-12-23T05:17:37.747Z,11.90
2018-12-23T05:20:41.409Z,12.10
2018-12-23T05:23:44.912Z,12.40
2018-12-23T05:26:48.428Z,11.07
2018-12-23T05:29:58.472Z,10.97
2018-12-23T05:33:01.897Z,12.07
2018-12-23T05:36:05.333Z,11.03
2018-12-23T05:39:08.973Z,11.40
2018-12-23T05:42:12.456Z,11.73
2018-12-23T05:45:16.004Z,10.13
2018-12-23T05:48:19.479Z,11.23
2018-12-23T05:51:22.957Z,10.90
2018-12-23T05:54:26.508Z,11.03
2018-12-23T05:57:30.091Z,11.77
2018-12-23T06:00:33.626Z,12.30
2018-12-23T06:03:37.177Z,11.90
2018-12-23T06:06:40.621Z,12.73
2018-12-23T06:09:44.072Z,13.60
2018-12-23T06:12:47.561Z,13.27
2018-12-23T06:15:51.011Z,13.57
2018-12-23T06:18:54.648Z,13.80
2018-12-23T06:21:58.143Z,14.00
2018-12-23T06:25:01.744Z,14.63
2018-12-23T06:28:05.351Z,14.87
2018-12-23T06:31:09.507Z,16.27
2018-12-23T06:34:13.127Z,14.65
2018-12-23T06:37:16.683Z,19.77
2018-12-23T06:40:20.425Z,17.00
2018-12-23T06:43:23.932Z,17.75
2018-12-23T06:46:27.621Z,17.37
2018-12-23T06:49:31.144Z,17.10
2018-12-23T06:52:34.785Z,17.27
2018-12-23T06:55:50.210Z,18.50
2018-12-23T06:58:53.690Z,17.93
2018-12-23T07:01:57.731Z,18.30
2018-12-23T07:05:01.223Z,16.80
2018-12-23T07:08:04.867Z,18.47
2018-12-23T07:11:09.072Z,19.34
2018-12-23T07:14:12.502Z,18.25
2018-12-23T07:17:16.052Z,18.90
2018-12-23T07:20:19.676Z,18.62
2018-12-23T07:23:23.549Z,18.07
2018-12-23T07:26:27.277Z,17.97
2018-12-23T07:29:30.795Z,17.50
2018-12-23T07:32:34.292Z,19.03
2018-12-23T07:35:37.715Z,19.57
2018-12-23T07:38:41.192Z,18.70
2018-12-23T07:41:44.730Z,18.17
2018-12-23T07:44:48.232Z,19.33
2018-12-23T07:47:51.810Z,17.27
2018-12-23T07:50:55.360Z,19.80
2018-12-23T07:53:58.852Z,20.33
2018-12-23T07:57:02.432Z,20.50
2018-12-23T08:00:06.007Z,21.80
2018-12-23T08:03:09.597Z,20.27
2018-12-23T08:06:13.156Z,19.50
2018-12-23T08:09:17.675Z,20.40
2018-12-23T08:12:21.230Z,20.87
2018-12-23T08:15:24.760Z,19.60
2018-12-23T08:18:28.355Z,21.40
2018-12-23T08:21:32.142Z,19.70
2018-12-23T08:24:35.831Z,20.00
2018-12-23T08:27:39.384Z,20.13
2018-12-23T08:30:42.946Z,19.60
2018-12-23T08:33:46.525Z,21.73
2018-12-23T08:36:50.137Z,20.10
2018-12-23T08:39:53.750Z,20.70
2018-12-23T08:42:57.886Z,20.40
2018-12-23T08:46:01.500Z,19.90
2018-12-23T08:49:04.969Z,19.20
2018-12-23T08:52:09.189Z,18.82
2018-12-23T08:55:12.696Z,19.00
2018-12-23T08:58:16.104Z,18.42
2018-12-23T09:01:19.565Z,18.30
2018-12-23T09:04:23.050Z,18.85
2018-12-23T09:07:26.530Z,19.53
2018-12-23T09:10:30.010Z,18.23
2018-12-23T09:13:33.571Z,19.13
2018-12-23T09:16:37.037Z,18.97
2018-12-23T09:19:40.511Z,18.57
2018-12-23T09:22:44.080Z,20.07
2018-12-23T09:25:47.654Z,17.33
2018-12-23T09:28:51.095Z,18.47
2018-12-23T09:31:54.803Z,18.03
2018-12-23T09:34:58.376Z,19.13
2018-12-23T09:38:01.958Z,18.17
2018-12-23T09:41:05.545Z,17.37
2018-12-23T09:44:09.255Z,17.70
2018-12-23T09:47:12.732Z,15.83
2018-12-23T09:50:16.210Z,18.27
2018-12-23T09:53:19.834Z,17.67
2018-12-23T09:56:23.259Z,16.10
2018-12-23T09:59:26.930Z,16.20
2018-12-23T10:02:30.439Z,15.90
2018-12-23T10:05:33.959Z,15.33
2018-12-23T10:08:37.446Z,17.03
2018-12-23T10:11:40.984Z,16.30
2018-12-23T10:14:44.531Z,16.30
2018-12-23T10:17:48.014Z,16.37
2018-12-23T10:20:51.498Z,15.13
2018-12-23T10:23:55.139Z,16.67
2018-12-23T10:26:58.579Z,15.30
2018-12-23T10:30:02.081Z,14.70
2018-12-23T10:33:05.559Z,15.43
2018-12-23T10:36:09.602Z,16.02
2018-12-23T10:39:13.143Z,15.40
2018-12-23T10:42:16.765Z,15.03
2018-12-23T10:45:20.269Z,17.07
2018-12-23T10:48:23.816Z,15.63
2018-12-23T10:51:27.336Z,14.43
2018-12-23T10:54:30.927Z,16.73
2018-12-23T10:57:34.487Z,16.03
2018-12-23T11:00:38.039Z,15.80
2018-12-23T11:03:41.691Z,16.65
2018-12-23T11:06:45.250Z,16.20
2018-12-23T11:09:48.745Z,17.20
2018-12-23T11:12:52.351Z,16.50
2018-12-23T11:15:55.904Z,16.20
2018-12-23T11:18:59.471Z,16.40
2018-12-23T11:22:03.176Z,16.30
2018-12-23T11:25:06.914Z,15.53
2018-12-23T11:28:10.570Z,16.70
2018-12-23T11:31:14.115Z,16.17
2018-12-23T11:34:17.605Z,16.15
2018-12-23T11:37:21.164Z,15.35
2018-12-23T11:40:25.105Z,17.07
2018-12-23T11:43:28.615Z,16.40
2018-12-23T11:46:32.114Z,16.00
2018-12-23T11:49:35.818Z,16.25
2018-12-23T11:52:39.854Z,16.77
2018-12-23T11:55:43.379Z,17.27
2018-12-23T11:58:46.900Z,16.53
2018-12-23T12:01:50.385Z,16.60
2018-12-23T12:04:53.868Z,17.45
2018-12-23T12:07:57.902Z,16.97
2018-12-23T12:11:01.435Z,15.53
2018-12-23T12:14:05.045Z,17.25
2018-12-23T12:17:08.746Z,16.13
2018-12-23T12:20:12.310Z,17.40
2018-12-23T12:23:15.823Z,17.77
2018-12-23T12:26:19.561Z,16.80
2018-12-23T12:29:23.120Z,16.30
2018-12-23T12:32:26.761Z,16.73
2018-12-23T12:35:30.220Z,16.90
2018-12-23T12:38:33.960Z,17.77
2018-12-23T12:41:37.431Z,16.40
2018-12-23T12:44:40.939Z,16.20
2018-12-23T12:47:50.450Z,17.63
2018-12-23T12:50:54.467Z,17.47
2018-12-23T12:55:06.355Z,18.14
2018-12-23T12:58:10.165Z,19.00
2018-12-23T13:01:15.982Z,18.00
2018-12-23T13:04:19.440Z,17.60
2018-12-23T13:07:24.344Z,17.07
2018-12-23T13:10:27.880Z,17.62
2018-12-23T13:13:31.525Z,17.07
2018-12-23T13:16:35.117Z,15.45
2018-12-23T13:20:10.655Z,18.00
2018-12-23T13:23:17.231Z,17.27
2018-12-23T13:29:35.023Z,16.55
2018-12-23T13:32:38.538Z,18.30
2018-12-23T13:35:42.051Z,16.73
2018-12-23T13:38:45.502Z,14.83
2018-12-23T13:42:01.110Z,17.20
2018-12-23T13:45:29.688Z,15.15
2018-12-23T13:48:45.024Z,16.10
2018-12-23T13:53:01.458Z,15.10
2018-12-23T13:56:17.891Z,13.98
2018-12-23T14:02:36.526Z,13.33
2018-12-23T14:05:51.309Z,12.40
2018-12-23T14:09:17.253Z,12.40
2018-12-23T14:12:17.289Z,11.53
2018-12-23T14:15:20.795Z,11.00
2018-12-23T14:18:24.379Z,10.83
2018-12-23T14:21:29.184Z,10.50
2018-12-23T14:24:32.704Z,12.20
2018-12-23T14:27:36.285Z,10.67
2018-12-23T14:37:52.735Z,11.13
2018-12-23T14:40:56.470Z,10.72
2018-12-23T14:44:00.015Z,10.53
2018-12-23T14:47:03.654Z,10.40
2018-12-23T14:50:08.640Z,10.75
2018-12-23T14:53:12.280Z,10.07
2018-12-23T14:56:15.798Z,11.73
2018-12-23T14:59:19.336Z,10.60
2018-12-23T15:02:22.895Z,11.47
2018-12-23T15:05:26.423Z,11.90
2018-12-23T15:08:31.015Z,12.07
2018-12-23T15:11:34.820Z,12.63
2018-12-23T15:14:41.903Z,11.47
2018-12-23T15:17:45.434Z,11.37
2018-12-23T15:20:49.014Z,12.00
2018-12-23T15:23:52.520Z,11.10
2018-12-23T15:26:56.179Z,10.80
2018-12-23T15:29:59.631Z,12.10
2018-12-23T15:33:03.189Z,12.47
2018-12-23T15:36:06.899Z,12.20
2018-12-23T15:39:11.369Z,11.80
2018-12-23T15:42:14.850Z,12.75
2018-12-23T15:45:18.397Z,11.17
2018-12-23T15:48:21.923Z,10.03
2018-12-23T15:51:25.406Z,10.97
2018-12-23T15:54:31.151Z,10.30
2018-12-23T15:57:34.762Z,12.00
2018-12-23T16:00:42.324Z,10.30
2018-12-23T16:03:45.865Z,10.53
2018-12-23T16:06:49.465Z,10.33
2018-12-23T16:09:54.193Z,10.10
2018-12-23T16:13:00.153Z,9.40
2018-12-23T16:27:00.234Z,9.30
2018-12-23T16:30:04.860Z,8.58
2018-12-23T16:33:09.198Z,8.53
2018-12-23T16:36:13.581Z,8.20
2018-12-23T16:39:17.969Z,8.13
2018-12-23T16:42:22.253Z,8.90
2018-12-23T16:45:26.571Z,8.67
2018-12-23T16:48:30.870Z,8.73
2018-12-23T16:51:35.149Z,7.90
2018-12-23T16:54:39.455Z,7.43
2018-12-23T16:57:43.767Z,7.23
2018-12-23T17:00:48.097Z,7.70
2018-12-23T17:03:52.460Z,8.60
2018-12-23T17:06:57.038Z,8.37
2018-12-23T17:10:08.414Z,8.40
2018-12-23T17:13:11.118Z,8.22
2018-12-23T17:16:15.481Z,8.08
2018-12-23T17:19:19.829Z,8.53
2018-12-23T17:22:32.563Z,7.92
2018-12-23T17:25:36.949Z,8.97
2018-12-23T17:28:41.466Z,9.43
2018-12-23T17:31:46.238Z,9.67
2018-12-23T17:34:50.552Z,11.60
2018-12-23T17:37:54.841Z,10.60
2018-12-23T17:40:59.145Z,9.35
2018-12-23T17:44:03.452Z,14.43
2018-12-23T17:47:07.788Z,14.93
2018-12-23T17:50:12.292Z,14.07
2018-12-23T17:53:19.849Z,10.07
2018-12-23T17:56:24.195Z,10.63
2018-12-23T17:59:28.544Z,10.70
2018-12-23T18:02:32.959Z,10.00
2018-12-23T18:05:37.378Z,9.90
2018-12-23T18:08:41.757Z,8.27
2018-12-23T18:11:46.160Z,7.70
2018-12-23T18:14:50.522Z,7.40
2018-12-23T18:17:54.875Z,9.10
2018-12-23T18:20:59.319Z,7.50
2018-12-23T18:24:05.148Z,8.08
2018-12-23T18:27:10.023Z,6.75
2018-12-23T18:30:14.380Z,7.65
2018-12-23T18:33:21.821Z,7.70
2018-12-23T18:36:26.260Z,6.50
2018-12-23T18:39:30.773Z,6.60
2018-12-23T18:42:40.859Z,9.10
2018-12-23T18:45:45.456Z,7.90
2018-12-23T18:48:49.814Z,7.50
2018-12-23T18:52:04.880Z,7.27
2018-12-23T18:55:14.448Z,7.40
2018-12-23T18:58:18.895Z,5.87
2018-12-23T19:01:24.819Z,5.95
2018-12-23T19:04:29.227Z,4.50
2018-12-23T19:07:33.539Z,4.00
2018-12-23T19:11:36.720Z,3.97
2018-12-23T19:15:12.905Z,3.42
2018-12-23T19:18:28.818Z,3.70
2018-12-23T19:22:03.489Z,3.40
2018-12-23T19:25:39.734Z,3.37
2018-12-23T19:29:21.025Z,3.57
2018-12-23T19:33:02.032Z,4.60
2018-12-23T19:36:51.718Z,3.67
2018-12-23T19:40:26.431Z,3.60
2018-12-23T19:44:12.753Z,3.53
2018-12-23T19:47:52.673Z,3.73
2018-12-23T19:51:41.030Z,4.30
2018-12-23T19:55:32.420Z,5.87
2018-12-23T19:59:22.694Z,7.53
2018-12-23T20:03:13.025Z,9.88
2018-12-23T20:06:45.250Z,11.17
2018-12-23T20:10:28.059Z,11.40
2018-12-23T20:14:26.837Z,10.50
2018-12-23T20:18:43.604Z,9.70
2018-12-23T20:22:21.703Z,9.73
2018-12-23T20:26:11.997Z,10.68
2018-12-23T20:30:01.132Z,11.85
2018-12-23T20:33:41.272Z,11.23
2018-12-23T20:37:22.084Z,9.00
2018-12-23T20:41:13.593Z,10.10
2018-12-23T20:44:46.289Z,9.60
2018-12-23T20:48:19.403Z,9.77
2018-12-23T20:52:01.159Z,9.77
2018-12-23T20:55:44.689Z,9.70
2018-12-23T20:59:11.513Z,8.67
2018-12-23T21:02:52.472Z,10.15
2018-12-23T21:06:23.473Z,10.00
2018-12-23T21:10:04.358Z,8.97
2018-12-23T21:13:26.523Z,9.50
2018-12-23T21:16:55.994Z,8.07
2018-12-23T21:21:05.246Z,8.40
2018-12-23T21:25:00.994Z,8.15
2018-12-23T21:28:43.607Z,8.13
2018-12-23T21:32:06.202Z,8.07
2018-12-23T21:35:31.833Z,7.77
2018-12-23T21:39:07.483Z,8.03
2018-12-23T21:42:22.985Z,9.85
2018-12-23T21:45:53.763Z,8.98
2018-12-23T21:49:37.195Z,8.23
2018-12-23T21:53:16.912Z,7.77
2018-12-23T21:57:07.363Z,7.80
2018-12-23T22:00:51.576Z,6.40
2018-12-23T22:04:31.083Z,6.30
2018-12-23T22:08:27.743Z,6.80
2018-12-23T22:12:20.709Z,7.40
2018-12-23T22:15:25.037Z,8.60
2018-12-23T22:18:29.375Z,8.30
2018-12-23T22:21:33.757Z,8.38
2018-12-23T22:24:38.392Z,6.97
2018-12-23T22:27:42.718Z,8.10
2018-12-23T22:30:47.116Z,8.40
2018-12-23T22:33:51.383Z,7.40
2018-12-23T22:36:55.791Z,7.70
2018-12-23T22:40:00.277Z,8.80
2018-12-23T22:43:04.728Z,8.90
2018-12-23T22:46:09.197Z,9.40
2018-12-23T22:49:13.642Z,8.10
2018-12-23T22:52:19.551Z,7.78
2018-12-23T22:55:24.248Z,7.00
2018-12-23T22:58:28.577Z,6.77
2018-12-23T23:01:33.523Z,5.73
2018-12-23T23:04:37.892Z,5.90
2018-12-23T23:07:42.622Z,5.60
2018-12-23T23:10:46.887Z,5.70
2018-12-23T23:13:51.217Z,6.90
2018-12-23T23:16:55.462Z,5.80
2018-12-23T23:19:59.858Z,6.23
2018-12-23T23:23:04.116Z,6.90
2018-12-23T23:26:08.519Z,6.50
2018-12-23T23:29:12.819Z,6.27
2018-12-23T23:32:17.117Z,7.07
2018-12-23T23:35:21.433Z,7.05
2018-12-23T23:38:25.927Z,6.87
2018-12-23T23:41:31.758Z,6.33
2018-12-23T23:44:36.060Z,6.70
2018-12-23T23:47:40.333Z,7.17
2018-12-23T23:50:44.709Z,7.70
2018-12-23T23:53:49.059Z,8.20
2018-12-23T23:56:53.583Z,7.50
2018-12-23T23:59:59.054Z,7.70
